Terminal Aerodrome Forecast
Issued by NWS

Home | Current Version | Previous Version | Text Only | Print | Product List | Glossary On
Versions: 1 2 3 4 5 6 7 8 9 10 11 12 13 14 15 16 17 18 19 20 21 22 23 24 25 26
000
FTUS44 KLIX 262000 AAB
TAFMSY
TAF AMD
KMSY 262000Z 2620/2718 VRB03KT P6SM SCT030 BKN120
     FM270900 11007KT P6SM BKN015
      TEMPO 2709/2713 5SM BR
     FM271500 07012KT P6SM BKN040=

USA.gov is the U.S. government's official web portal to all federal, state and local government web resources and services.